Time;durP1;ratioP1;P1;durP2;ratioP2;P2;SDS_P1;SDS_P2;PMS_P1;PMS_P2;Temp;Humidity;BMP_temperature;BMP_pressure;BME280_temperature;BME280_humidity;BME280_pressure;Samples;Min_cycle;Max_cycle;Signal;HPM_P1;HPM_P2
2022/05/07 00:01:19;;;;;;;13.40;4.65;;;;;;;;;;5051675;28;20132;-72
2022/05/07 00:04:23;;;;;;;10.45;4.15;;;;;;;;;;5052082;28;20041;-72
2022/05/07 00:07:28;;;;;;;14.27;4.05;;;;;;;;;;5052042;28;20048;-72
2022/05/07 00:10:32;;;;;;;13.55;3.60;;;;;;;;;;5051173;28;20048;-72
2022/05/07 00:13:38;;;;;;;10.18;3.40;;;;;;;;;;5051853;28;20041;-71
2022/05/07 00:20:05;;;;;;;7.50;2.67;;;;;;;;;;5051617;28;20045;-71
2022/05/07 00:23:09;;;;;;;15.43;3.00;;;;;;;;;;5050745;28;20033;-71
2022/05/07 00:26:14;;;;;;;13.00;2.55;;;;;;;;;;5051734;28;20045;-70
2022/05/07 00:29:18;;;;;;;12.18;3.17;;;;;;;;;;5039967;28;20041;-72
2022/05/07 00:32:22;;;;;;;17.30;2.40;;;;;;;;;;5051940;28;20049;-72
2022/05/07 00:35:27;;;;;;;8.50;1.98;;;;;;;;;;5051850;28;20037;-71
2022/05/07 00:38:32;;;;;;;6.55;1.60;;;;;;;;;;5051629;28;20489;-72
2022/05/07 00:41:38;;;;;;;12.45;2.33;;;;;;;;;;5051729;28;20037;-72
2022/05/07 00:44:43;;;;;;;5.95;1.75;;;;;;;;;;5028736;28;20045;-72
2022/05/07 00:47:47;;;;;;;7.40;1.77;;;;;;;;;;5052307;28;20485;-72
2022/05/07 00:54:14;;;;;;;14.25;2.35;;;;;;;;;;5051250;28;20060;-71
2022/05/07 00:57:19;;;;;;;11.32;2.08;;;;;;;;;;5051269;28;20160;-72
2022/05/07 01:00:23;;;;;;;9.05;2.10;;;;;;;;;;5051481;28;20045;-72
2022/05/07 01:03:28;;;;;;;9.20;1.73;;;;;;;;;;5039487;28;20037;-72
2022/05/07 01:06:32;;;;;;;12.25;2.50;;;;;;;;;;5050210;28;20045;-72
2022/05/07 01:09:37;;;;;;;5.85;2.03;;;;;;;;;;5038941;28;20064;-72
2022/05/07 01:12:43;;;;;;;10.82;2.35;;;;;;;;;;5039175;28;20037;-72
2022/05/07 01:15:49;;;;;;;7.88;1.92;;;;;;;;;;5049674;28;20048;-72
2022/05/07 01:18:55;;;;;;;11.45;2.45;;;;;;;;;;5038906;28;20041;-71
2022/05/07 01:22:00;;;;;;;10.82;2.00;;;;;;;;;;5050313;28;20470;-72
2022/05/07 01:25:05;;;;;;;7.65;1.88;;;;;;;;;;5050326;28;20037;-72
2022/05/07 01:28:09;;;;;;;7.70;2.03;;;;;;;;;;5038902;28;20049;-72
2022/05/07 01:31:16;;;;;;;10.50;2.78;;;;;;;;;;5050651;28;20033;-72
2022/05/07 01:34:21;;;;;;;13.25;2.20;;;;;;;;;;5050713;28;20073;-72
2022/05/07 01:37:30;;;;;;;11.57;2.08;;;;;;;;;;5050283;28;20048;-72
2022/05/07 01:40:35;;;;;;;8.27;2.03;;;;;;;;;;5049964;28;20048;-72
2022/05/07 01:43:41;;;;;;;8.32;2.17;;;;;;;;;;5049929;28;20390;-73
2022/05/07 01:50:12;;;;;;;10.77;2.45;;;;;;;;;;5045685;28;20038;-71
2022/05/07 01:53:17;;;;;;;7.55;2.25;;;;;;;;;;5053951;28;20041;-71
2022/05/07 01:56:25;;;;;;;9.30;2.28;;;;;;;;;;5053742;28;20040;-71
2022/05/07 01:59:30;;;;;;;8.40;2.65;;;;;;;;;;5042148;28;20045;-71
2022/05/07 02:02:39;;;;;;;11.80;2.63;;;;;;;;;;5053678;28;20036;-71
2022/05/07 02:05:51;;;;;;;9.98;2.75;;;;;;;;;;5053323;28;20406;-71
2022/05/07 02:08:55;;;;;;;8.73;2.30;;;;;;;;;;5030208;28;20489;-71
2022/05/07 02:12:04;;;;;;;14.23;2.78;;;;;;;;;;5053445;28;20473;-71
2022/05/07 02:15:10;;;;;;;8.65;2.70;;;;;;;;;;5053206;28;20048;-71
2022/05/07 02:18:15;;;;;;;9.32;2.47;;;;;;;;;;5053353;28;20041;-71
2022/05/07 02:21:22;;;;;;;8.70;2.60;;;;;;;;;;5052908;28;20041;-71
2022/05/07 02:24:27;;;;;;;12.15;3.00;;;;;;;;;;5053060;28;20045;-71
2022/05/07 02:27:31;;;;;;;14.95;2.92;;;;;;;;;;5052600;28;20247;-71
2022/05/07 02:30:38;;;;;;;10.10;2.80;;;;;;;;;;5053125;28;20389;-71
2022/05/07 02:33:44;;;;;;;7.93;3.30;;;;;;;;;;5052690;28;20060;-71
2022/05/07 02:36:52;;;;;;;11.20;2.72;;;;;;;;;;5041639;28;20033;-71
2022/05/07 02:39:56;;;;;;;8.07;2.53;;;;;;;;;;5052812;28;20505;-71
2022/05/07 02:43:01;;;;;;;9.82;2.83;;;;;;;;;;5052767;28;20037;-71
2022/05/07 02:46:06;;;;;;;13.32;3.22;;;;;;;;;;5052309;28;20045;-71
2022/05/07 02:49:11;;;;;;;8.75;2.75;;;;;;;;;;5041511;28;20370;-71
2022/05/07 02:52:16;;;;;;;9.95;3.00;;;;;;;;;;5052337;28;20041;-71
2022/05/07 02:55:20;;;;;;;12.18;3.50;;;;;;;;;;5052324;28;20045;-71
2022/05/07 02:58:30;;;;;;;13.52;3.70;;;;;;;;;;5052251;28;20047;-73
2022/05/07 03:01:35;;;;;;;9.25;3.10;;;;;;;;;;5053033;28;20044;-71
2022/05/07 03:04:39;;;;;;;10.02;3.60;;;;;;;;;;5040818;28;20037;-71
2022/05/07 03:07:44;;;;;;;17.52;3.70;;;;;;;;;;5040163;28;20045;-71
2022/05/07 03:10:59;;;;;;;9.73;3.47;;;;;;;;;;5040631;28;20400;-71
2022/05/07 03:14:03;;;;;;;14.68;4.20;;;;;;;;;;5052724;28;20041;-71
2022/05/07 03:17:08;;;;;;;11.30;3.90;;;;;;;;;;5051751;28;20531;-71
2022/05/07 03:20:16;;;;;;;12.85;3.72;;;;;;;;;;5052701;28;20036;-71
2022/05/07 03:23:22;;;;;;;10.48;3.60;;;;;;;;;;5051745;28;20404;-71
2022/05/07 03:26:31;;;;;;;8.85;3.60;;;;;;;;;;5040156;28;20038;-71
2022/05/07 03:29:36;;;;;;;11.15;4.05;;;;;;;;;;5051693;28;20370;-71
2022/05/07 03:32:53;;;;;;;11.93;3.63;;;;;;;;;;5051739;28;20033;-71
2022/05/07 03:35:58;;;;;;;14.90;4.38;;;;;;;;;;5051649;28;20045;-71
2022/05/07 03:39:03;;;;;;;16.92;5.55;;;;;;;;;;5051552;28;20045;-71
2022/05/07 03:42:12;;;;;;;9.70;3.92;;;;;;;;;;5051699;28;20045;-71
2022/05/07 03:45:16;;;;;;;14.75;4.20;;;;;;;;;;5051410;28;20037;-71
2022/05/07 03:48:25;;;;;;;12.80;4.20;;;;;;;;;;5051332;28;20064;-72
2022/05/07 03:53:29;;;;;;;13.38;4.40;;;;;;;;;;5051383;28;20037;-72
2022/05/07 03:54:56;;;;;;;11.52;5.60;;;;;;;;;;5051468;28;20050;-72
2022/05/07 03:58:02;;;;;;;11.50;4.40;;;;;;;;;;5040470;28;20053;-71
2022/05/07 04:01:15;;;;;;;11.90;4.32;;;;;;;;;;5040477;28;20037;-71
2022/05/07 04:04:19;;;;;;;15.20;4.90;;;;;;;;;;5051210;28;20044;-71
2022/05/07 04:07:24;;;;;;;14.23;4.97;;;;;;;;;;5039663;28;20056;-72
2022/05/07 04:10:42;;;;;;;11.68;5.35;;;;;;;;;;5051517;28;20041;-72
2022/05/07 04:13:48;;;;;;;13.45;5.25;;;;;;;;;;5051363;28;20425;-71
2022/05/07 04:16:53;;;;;;;12.75;4.80;;;;;;;;;;5051390;28;20044;-72
2022/05/07 04:19:58;;;;;;;10.75;5.20;;;;;;;;;;5050885;28;20405;-73
2022/05/07 04:23:04;;;;;;;13.85;5.82;;;;;;;;;;5051027;28;20048;-72
2022/05/07 04:26:10;;;;;;;10.43;5.75;;;;;;;;;;5051255;28;20048;-73
2022/05/07 04:29:19;;;;;;;15.20;5.82;;;;;;;;;;5051759;28;20040;-71
2022/05/07 04:32:33;;;;;;;10.98;5.88;;;;;;;;;;5050989;28;20029;-72
2022/05/07 04:35:39;;;;;;;15.75;6.47;;;;;;;;;;5050852;28;20045;-72
2022/05/07 04:38:46;;;;;;;17.35;5.65;;;;;;;;;;5051368;28;20398;-71
2022/05/07 04:41:57;;;;;;;26.33;6.32;;;;;;;;;;5039877;28;20132;-72
2022/05/07 04:45:10;;;;;;;13.50;5.95;;;;;;;;;;5050812;28;20069;-72
2022/05/07 04:48:26;;;;;;;11.68;6.30;;;;;;;;;;5050642;28;20048;-72
2022/05/07 04:51:30;;;;;;;14.45;6.32;;;;;;;;;;5039676;28;20052;-72
2022/05/07 04:54:42;;;;;;;13.93;6.20;;;;;;;;;;5050656;28;20037;-73
2022/05/07 04:57:47;;;;;;;18.73;6.57;;;;;;;;;;5050584;28;20033;-71
2022/05/07 05:00:55;;;;;;;16.10;6.22;;;;;;;;;;5050919;28;20040;-72
2022/05/07 05:04:03;;;;;;;13.55;6.40;;;;;;;;;;5051315;28;20033;-72
2022/05/07 05:07:10;;;;;;;10.50;6.28;;;;;;;;;;5050103;28;20488;-68
2022/05/07 05:10:18;;;;;;;17.10;6.50;;;;;;;;;;5050246;28;20397;-62
2022/05/07 05:13:25;;;;;;;19.00;6.70;;;;;;;;;;5050152;28;20041;-64
2022/05/07 05:16:30;;;;;;;11.93;6.30;;;;;;;;;;5050033;28;20029;-63
2022/05/07 05:19:42;;;;;;;12.50;5.88;;;;;;;;;;5038709;28;20044;-62
2022/05/07 05:22:51;;;;;;;12.68;5.68;;;;;;;;;;5054129;28;20500;-63
2022/05/07 05:26:00;;;;;;;13.40;6.05;;;;;;;;;;5054146;28;20041;-62
2022/05/07 05:29:13;;;;;;;15.23;5.93;;;;;;;;;;5054028;28;20067;-61
2022/05/07 05:32:18;;;;;;;11.20;6.43;;;;;;;;;;5054067;28;20054;-63
2022/05/07 05:35:25;;;;;;;14.77;5.90;;;;;;;;;;5053558;28;20048;-63
2022/05/07 05:38:32;;;;;;;15.63;5.85;;;;;;;;;;5053921;28;20061;-63
2022/05/07 05:41:41;;;;;;;20.02;6.38;;;;;;;;;;5042766;28;20418;-63
2022/05/07 05:44:46;;;;;;;14.90;5.75;;;;;;;;;;5053364;28;20033;-67
2022/05/07 05:47:56;;;;;;;19.15;6.45;;;;;;;;;;5053485;28;20488;-65
2022/05/07 05:51:01;;;;;;;10.60;5.80;;;;;;;;;;5053411;28;20504;-63
2022/05/07 05:54:10;;;;;;;11.07;5.80;;;;;;;;;;5053465;28;20054;-64
2022/05/07 05:57:15;;;;;;;11.32;5.72;;;;;;;;;;5053021;28;20041;-64
2022/05/07 06:00:21;;;;;;;12.07;6.25;;;;;;;;;;5042324;28;20566;-64
2022/05/07 06:03:27;;;;;;;13.80;6.82;;;;;;;;;;5053244;28;20037;-65
2022/05/07 06:06:32;;;;;;;12.15;6.22;;;;;;;;;;5053233;28;20041;-64
2022/05/07 06:09:36;;;;;;;16.10;6.30;;;;;;;;;;5053599;28;20056;-64
2022/05/07 06:12:44;;;;;;;10.65;5.65;;;;;;;;;;5053043;28;20040;-63
2022/05/07 06:15:51;;;;;;;11.65;5.75;;;;;;;;;;5052866;28;20037;-64
2022/05/07 06:18:56;;;;;;;10.73;5.30;;;;;;;;;;5052930;28;20052;-64
2022/05/07 06:22:03;;;;;;;12.20;5.45;;;;;;;;;;5053084;28;20077;-65
2022/05/07 06:28:41;;;;;;;9.25;5.00;;;;;;;;;;5052952;28;20045;-64
2022/05/07 06:31:47;;;;;;;14.85;5.40;;;;;;;;;;5052286;28;20041;-65
2022/05/07 06:34:51;;;;;;;13.40;5.80;;;;;;;;;;5052643;28;20048;-66
2022/05/07 06:37:55;;;;;;;12.30;5.20;;;;;;;;;;5052773;28;20393;-64
2022/05/07 06:41:04;;;;;;;28.92;6.25;;;;;;;;;;5041371;28;20469;-68
2022/05/07 06:44:09;;;;;;;13.73;5.05;;;;;;;;;;5052878;28;20028;-66
2022/05/07 06:47:14;;;;;;;16.25;5.20;;;;;;;;;;5053069;28;20500;-65
2022/05/07 06:50:19;;;;;;;12.75;5.28;;;;;;;;;;5052459;28;20527;-66
2022/05/07 06:53:24;;;;;;;12.88;5.55;;;;;;;;;;5052233;28;20029;-65
2022/05/07 06:56:29;;;;;;;14.70;4.57;;;;;;;;;;5052636;28;20052;-65
2022/05/07 06:59:33;;;;;;;7.07;3.55;;;;;;;;;;5052783;28;20041;-66
2022/05/07 07:02:38;;;;;;;13.30;4.88;;;;;;;;;;5053004;28;20028;-65
2022/05/07 07:05:43;;;;;;;9.85;4.28;;;;;;;;;;5052895;28;20033;-65
2022/05/07 07:08:48;;;;;;;7.47;4.15;;;;;;;;;;5051360;28;20056;-64
2022/05/07 07:11:52;;;;;;;5.55;3.47;;;;;;;;;;5052702;28;20361;-64
2022/05/07 07:14:57;;;;;;;8.98;4.00;;;;;;;;;;5052211;28;20036;-64
2022/05/07 07:18:04;;;;;;;12.13;4.65;;;;;;;;;;5052365;28;20041;-65
2022/05/07 07:21:08;;;;;;;6.63;3.53;;;;;;;;;;5051986;28;20056;-63
2022/05/07 07:24:13;;;;;;;8.75;3.40;;;;;;;;;;5051958;28;20045;-64
2022/05/07 07:27:17;;;;;;;5.72;3.47;;;;;;;;;;5052591;28;20354;-64
2022/05/07 07:30:21;;;;;;;7.53;3.53;;;;;;;;;;5052414;28;20127;-63
2022/05/07 07:33:26;;;;;;;6.35;3.22;;;;;;;;;;5051732;28;20040;-65
2022/05/07 07:36:30;;;;;;;6.28;3.58;;;;;;;;;;5040214;28;20045;-65
2022/05/07 07:39:34;;;;;;;7.38;3.63;;;;;;;;;;5051666;28;20048;-65
2022/05/07 07:42:41;;;;;;;7.70;3.90;;;;;;;;;;5051995;28;20029;-64
2022/05/07 07:49:09;;;;;;;6.40;3.60;;;;;;;;;;5052344;28;20052;-64
2022/05/07 07:52:15;;;;;;;11.30;3.92;;;;;;;;;;5052326;28;20033;-65
2022/05/07 07:55:20;;;;;;;8.30;4.03;;;;;;;;;;5050850;28;20037;-65
2022/05/07 07:58:25;;;;;;;16.20;4.25;;;;;;;;;;5052037;28;20033;-65
2022/05/07 08:01:29;;;;;;;9.57;4.28;;;;;;;;;;5049863;28;20110;-65
2022/05/07 08:04:33;;;;;;;10.95;4.70;;;;;;;;;;5049557;28;20025;-65
2022/05/07 08:14:23;;;;;;;14.88;5.03;;;;;;;;;;5051522;28;20037;-65
2022/05/07 08:17:28;;;;;;;8.50;4.47;;;;;;;;;;5051550;28;20499;-64
2022/05/07 08:20:33;;;;;;;7.03;3.60;;;;;;;;;;5039555;28;20037;-65
2022/05/07 08:23:39;;;;;;;11.07;4.07;;;;;;;;;;5051503;28;20037;-64
2022/05/07 08:26:43;;;;;;;9.07;4.38;;;;;;;;;;5051114;28;20036;-64
2022/05/07 08:29:47;;;;;;;9.30;4.32;;;;;;;;;;5051116;28;20409;-64
2022/05/07 08:32:52;;;;;;;9.75;4.05;;;;;;;;;;5051515;28;20045;-64
2022/05/07 08:35:56;;;;;;;9.00;3.88;;;;;;;;;;5051319;28;20045;-65
2022/05/07 08:39:00;;;;;;;13.88;4.40;;;;;;;;;;5050453;28;20107;-64
2022/05/07 08:42:06;;;;;;;6.68;3.75;;;;;;;;;;5051174;28;20033;-63
2022/05/07 08:45:14;;;;;;;9.25;3.42;;;;;;;;;;5050132;28;20040;-65
2022/05/07 08:48:19;;;;;;;10.23;3.67;;;;;;;;;;5051030;28;20382;-65
2022/05/07 08:51:23;;;;;;;8.18;3.45;;;;;;;;;;5050952;28;20037;-65
2022/05/07 08:54:28;;;;;;;16.20;3.40;;;;;;;;;;5051264;28;20041;-65
2022/05/07 08:57:32;;;;;;;18.45;4.20;;;;;;;;;;5051072;28;20394;-64
2022/05/07 09:00:38;;;;;;;9.20;3.05;;;;;;;;;;5051071;28;20051;-64
2022/05/07 09:03:44;;;;;;;9.25;3.10;;;;;;;;;;5050895;28;20044;-65
2022/05/07 09:06:56;;;;;;;11.70;3.58;;;;;;;;;;5050856;28;20045;-64
2022/05/07 09:10:00;;;;;;;11.65;3.95;;;;;;;;;;5049727;28;20081;-63
2022/05/07 09:13:10;;;;;;;12.63;3.65;;;;;;;;;;5050743;28;20037;-64
2022/05/07 09:16:15;;;;;;;12.80;4.25;;;;;;;;;;5050768;28;20048;-65
2022/05/07 09:19:25;;;;;;;7.10;3.90;;;;;;;;;;5050747;28;20052;-64
2022/05/07 09:22:29;;;;;;;11.43;3.53;;;;;;;;;;5050798;28;20049;-64
2022/05/07 09:25:35;;;;;;;12.57;4.22;;;;;;;;;;5050721;28;20044;-65
2022/05/07 09:28:39;;;;;;;10.60;3.83;;;;;;;;;;5050587;28;20045;-65
2022/05/07 09:31:45;;;;;;;9.15;4.07;;;;;;;;;;5050475;28;20369;-64
2022/05/07 09:38:24;;;;;;;13.82;3.92;;;;;;;;;;5050901;28;20048;-64
2022/05/07 09:41:29;;;;;;;13.85;4.03;;;;;;;;;;5050793;28;20509;-63
2022/05/07 09:44:33;;;;;;;12.50;3.60;;;;;;;;;;5049797;28;20041;-65
2022/05/07 09:47:38;;;;;;;15.82;4.25;;;;;;;;;;5050323;28;20438;-65
2022/05/07 10:00:35;;;;;;;9.43;3.22;;;;;;;;;;5050328;28;20481;-64
2022/05/07 10:03:42;;;;;;;12.05;3.60;;;;;;;;;;5050307;28;20036;-64
2022/05/07 10:06:56;;;;;;;8.85;2.85;;;;;;;;;;5051528;28;20038;-64
2022/05/07 10:10:19;;;;;;;9.00;3.00;;;;;;;;;;5053816;28;20053;-64
2022/05/07 10:13:26;;;;;;;10.13;2.75;;;;;;;;;;5053875;28;20036;-63
2022/05/07 10:16:30;;;;;;;9.13;2.67;;;;;;;;;;5053976;28;20029;-64
2022/05/07 10:19:39;;;;;;;5.43;2.75;;;;;;;;;;5053765;28;20045;-65
2022/05/07 10:22:44;;;;;;;9.77;3.20;;;;;;;;;;5053987;28;20040;-64
2022/05/07 10:25:55;;;;;;;9.52;3.72;;;;;;;;;;5054321;28;20036;-65
2022/05/07 10:29:01;;;;;;;10.57;3.83;;;;;;;;;;5053486;28;20049;-65
2022/05/07 10:32:05;;;;;;;9.68;3.40;;;;;;;;;;5053006;28;20044;-65
2022/05/07 10:35:10;;;;;;;8.90;3.58;;;;;;;;;;5053703;28;20041;-65
2022/05/07 10:38:15;;;;;;;7.57;3.40;;;;;;;;;;5053702;28;20041;-64
2022/05/07 10:41:22;;;;;;;8.23;3.50;;;;;;;;;;5053054;28;20468;-64
2022/05/07 10:44:33;;;;;;;10.40;3.83;;;;;;;;;;5053872;28;20033;-65
2022/05/07 10:47:41;;;;;;;14.68;4.35;;;;;;;;;;5041338;28;20046;-65
2022/05/07 10:50:53;;;;;;;11.73;4.00;;;;;;;;;;5053399;28;20053;-65
2022/05/07 10:54:00;;;;;;;8.20;3.63;;;;;;;;;;5053184;28;20044;-66
2022/05/07 10:57:06;;;;;;;8.93;3.85;;;;;;;;;;5053090;28;20033;-66
2022/05/07 11:00:21;;;;;;;12.40;3.47;;;;;;;;;;5053201;28;20041;-66
2022/05/07 11:03:26;;;;;;;11.63;4.00;;;;;;;;;;5053066;28;20036;-66
2022/05/07 11:06:51;;;;;;;9.15;3.70;;;;;;;;;;5052858;28;20041;-66
2022/05/07 11:09:55;;;;;;;9.05;3.75;;;;;;;;;;5052585;28;20369;-65
2022/05/07 11:13:07;;;;;;;10.57;4.18;;;;;;;;;;5052021;28;20377;-66
2022/05/07 11:16:12;;;;;;;12.48;3.40;;;;;;;;;;5053041;28;20501;-66
2022/05/07 11:19:36;;;;;;;11.82;3.30;;;;;;;;;;5052343;28;20409;-65
2022/05/07 11:22:41;;;;;;;14.13;3.60;;;;;;;;;;5052588;28;20600;-65
2022/05/07 11:25:48;;;;;;;13.48;3.78;;;;;;;;;;5052917;28;20044;-66
2022/05/07 11:28:53;;;;;;;11.88;4.20;;;;;;;;;;5052577;28;20057;-66
2022/05/07 11:32:01;;;;;;;8.35;3.10;;;;;;;;;;5051466;28;20060;-65
2022/05/07 11:35:06;;;;;;;7.63;4.13;;;;;;;;;;5050494;28;20041;-66
2022/05/07 11:38:14;;;;;;;7.60;3.60;;;;;;;;;;5051453;28;20041;-66
2022/05/07 11:41:23;;;;;;;9.88;3.38;;;;;;;;;;5052579;28;20045;-65
2022/05/07 11:47:52;;;;;;;11.32;3.58;;;;;;;;;;5052356;28;20059;-66
2022/05/07 11:50:59;;;;;;;7.55;3.28;;;;;;;;;;5052076;28;20056;-66
2022/05/07 11:54:10;;;;;;;13.82;2.75;;;;;;;;;;5052209;28;20041;-65
2022/05/07 11:57:14;;;;;;;9.32;3.30;;;;;;;;;;5052125;28;20044;-66
2022/05/07 12:00:20;;;;;;;9.75;3.05;;;;;;;;;;5052019;28;20041;-65
2022/05/07 12:03:26;;;;;;;11.80;3.17;;;;;;;;;;5051788;28;20041;-66
2022/05/07 12:06:31;;;;;;;12.18;3.92;;;;;;;;;;5052035;28;20385;-64
2022/05/07 12:09:35;;;;;;;10.82;3.10;;;;;;;;;;5051651;28;20416;-64
2022/05/07 12:12:39;;;;;;;7.22;2.92;;;;;;;;;;5051954;28;20040;-65
2022/05/07 12:19:09;;;;;;;8.13;3.45;;;;;;;;;;5051743;28;20037;-66
2022/05/07 12:32:24;;;;;;;10.52;3.63;;;;;;;;;;5050705;28;20040;-66
2022/05/07 12:35:29;;;;;;;9.98;3.70;;;;;;;;;;5051548;28;20416;-66
2022/05/07 12:38:33;;;;;;;17.17;4.22;;;;;;;;;;5050176;28;20037;-65
2022/05/07 12:41:42;;;;;;;12.80;4.10;;;;;;;;;;5050978;28;20503;-63
2022/05/07 12:44:46;;;;;;;9.27;3.95;;;;;;;;;;5051356;28;20029;-65
2022/05/07 12:47:50;;;;;;;8.13;3.75;;;;;;;;;;5049962;28;20053;-65
2022/05/07 12:50:55;;;;;;;9.73;3.78;;;;;;;;;;5039143;28;20397;-65
2022/05/07 12:53:59;;;;;;;9.32;3.88;;;;;;;;;;5050757;28;20041;-66
2022/05/07 12:57:04;;;;;;;10.88;4.15;;;;;;;;;;5051146;28;20037;-65
2022/05/07 13:00:08;;;;;;;10.60;3.75;;;;;;;;;;5051232;28;20385;-65
2022/05/07 13:03:13;;;;;;;9.02;3.63;;;;;;;;;;5051049;28;20052;-64
2022/05/07 13:06:17;;;;;;;8.20;4.00;;;;;;;;;;5050917;28;20117;-64
2022/05/07 13:09:22;;;;;;;8.45;4.07;;;;;;;;;;5050566;28;20396;-65
2022/05/07 13:12:26;;;;;;;9.93;4.45;;;;;;;;;;5051317;28;20365;-64
2022/05/07 13:15:30;;;;;;;12.45;4.72;;;;;;;;;;5051392;28;20041;-65
2022/05/07 13:18:35;;;;;;;11.00;4.97;;;;;;;;;;5050849;28;20056;-65
2022/05/07 13:21:42;;;;;;;17.48;5.57;;;;;;;;;;5050776;28;20132;-66
2022/05/07 13:24:46;;;;;;;12.43;5.10;;;;;;;;;;5051003;28;20045;-67
2022/05/07 13:27:50;;;;;;;9.85;4.88;;;;;;;;;;5051244;28;20072;-67
2022/05/07 13:30:57;;;;;;;11.70;5.32;;;;;;;;;;5050765;28;20377;-69
2022/05/07 13:34:02;;;;;;;10.75;5.20;;;;;;;;;;5050170;28;20041;-66
2022/05/07 13:37:06;;;;;;;12.38;5.05;;;;;;;;;;5050782;28;20045;-65
2022/05/07 13:40:11;;;;;;;12.10;4.97;;;;;;;;;;5050095;28;20191;-66
2022/05/07 13:43:15;;;;;;;9.85;4.97;;;;;;;;;;5053831;28;20033;-66
2022/05/07 13:46:21;;;;;;;9.10;4.72;;;;;;;;;;5054875;28;20033;-67
2022/05/07 13:49:26;;;;;;;10.23;4.55;;;;;;;;;;5054485;28;20045;-66
2022/05/07 13:52:30;;;;;;;11.65;5.22;;;;;;;;;;5054270;28;20033;-66
2022/05/07 13:55:35;;;;;;;12.60;5.00;;;;;;;;;;5054379;28;20033;-65
2022/05/07 13:58:41;;;;;;;11.15;5.18;;;;;;;;;;5053553;28;20037;-66
2022/05/07 14:01:45;;;;;;;13.70;5.20;;;;;;;;;;5054342;28;20040;-66
2022/05/07 14:04:50;;;;;;;6.78;4.40;;;;;;;;;;5054140;28;20040;-66
2022/05/07 14:07:54;;;;;;;9.13;4.72;;;;;;;;;;5053985;28;20041;-65
2022/05/07 14:10:59;;;;;;;8.52;4.50;;;;;;;;;;5054375;28;20037;-65
2022/05/07 14:14:04;;;;;;;10.35;4.57;;;;;;;;;;5054014;28;20040;-65
2022/05/07 14:17:09;;;;;;;5.75;3.95;;;;;;;;;;5054248;28;20033;-66
2022/05/07 14:20:13;;;;;;;7.05;3.10;;;;;;;;;;5054216;28;20041;-66
2022/05/07 14:23:18;;;;;;;6.45;3.10;;;;;;;;;;5054050;28;20369;-67
2022/05/07 14:26:22;;;;;;;9.10;3.50;;;;;;;;;;5052873;28;20041;-65
2022/05/07 14:29:27;;;;;;;7.85;3.50;;;;;;;;;;5053467;28;20180;-65
2022/05/07 14:32:31;;;;;;;5.07;3.05;;;;;;;;;;5053467;28;20041;-65
2022/05/07 14:35:36;;;;;;;8.38;3.40;;;;;;;;;;5053690;28;20370;-66
2022/05/07 14:38:40;;;;;;;5.10;3.47;;;;;;;;;;5053635;28;20046;-65
2022/05/07 14:41:45;;;;;;;9.07;3.97;;;;;;;;;;5052928;28;20040;-65
2022/05/07 14:44:49;;;;;;;8.05;3.47;;;;;;;;;;5053406;28;20032;-66
2022/05/07 14:47:55;;;;;;;4.35;3.03;;;;;;;;;;5041129;28;20041;-66
2022/05/07 14:50:59;;;;;;;11.57;3.20;;;;;;;;;;5053568;28;20045;-66
2022/05/07 14:54:04;;;;;;;4.85;3.30;;;;;;;;;;5052916;28;20044;-65
2022/05/07 14:57:09;;;;;;;7.30;2.63;;;;;;;;;;5052879;28;20036;-65
2022/05/07 15:00:16;;;;;;;5.43;2.83;;;;;;;;;;5052673;28;20048;-67
2022/05/07 15:03:21;;;;;;;4.93;2.92;;;;;;;;;;5052872;28;20037;-65
2022/05/07 15:06:25;;;;;;;6.70;2.60;;;;;;;;;;5051915;28;20104;-64
2022/05/07 15:12:54;;;;;;;5.65;3.40;;;;;;;;;;5052815;28;20037;-65
2022/05/07 15:15:59;;;;;;;10.20;3.20;;;;;;;;;;5051931;28;20036;-64
2022/05/07 15:19:03;;;;;;;5.10;2.67;;;;;;;;;;5052671;28;20041;-65
2022/05/07 15:22:09;;;;;;;8.63;3.50;;;;;;;;;;5052564;28;20044;-65
2022/05/07 15:25:18;;;;;;;5.22;2.53;;;;;;;;;;5052110;28;20045;-65
2022/05/07 15:28:23;;;;;;;3.40;2.17;;;;;;;;;;5052473;28;20053;-68
2022/05/07 15:31:27;;;;;;;5.80;2.50;;;;;;;;;;5052561;28;20374;-64
2022/05/07 15:37:54;;;;;;;6.63;2.50;;;;;;;;;;5052370;28;20037;-65
2022/05/07 15:40:58;;;;;;;9.40;3.03;;;;;;;;;;5052436;28;20037;-65
2022/05/07 15:44:03;;;;;;;4.90;2.75;;;;;;;;;;5052077;28;20267;-64
2022/05/07 15:47:09;;;;;;;6.38;3.35;;;;;;;;;;5051014;28;20029;-65
2022/05/07 15:50:13;;;;;;;5.85;2.83;;;;;;;;;;5051737;28;20056;-65
2022/05/07 15:53:17;;;;;;;8.55;3.42;;;;;;;;;;5039511;28;20029;-65
2022/05/07 15:56:23;;;;;;;6.78;2.47;;;;;;;;;;5051764;28;20473;-65
2022/05/07 15:59:28;;;;;;;8.63;2.90;;;;;;;;;;5052169;28;20370;-68
2022/05/07 16:02:32;;;;;;;12.05;2.78;;;;;;;;;;5051884;28;20044;-66
2022/05/07 16:05:37;;;;;;;6.63;2.97;;;;;;;;;;5051333;28;20037;-65
2022/05/07 16:08:43;;;;;;;6.60;3.22;;;;;;;;;;5051507;28;20049;-64
2022/05/07 16:11:47;;;;;;;7.30;3.47;;;;;;;;;;5051819;28;20381;-64
2022/05/07 16:14:51;;;;;;;9.25;3.20;;;;;;;;;;5051825;28;20040;-64
2022/05/07 16:17:56;;;;;;;7.85;3.22;;;;;;;;;;5051508;28;20040;-65
2022/05/07 16:21:03;;;;;;;7.85;4.05;;;;;;;;;;5052021;28;20044;-66
2022/05/07 16:27:30;;;;;;;6.50;3.25;;;;;;;;;;5051224;28;20037;-65
2022/05/07 16:30:35;;;;;;;7.45;3.42;;;;;;;;;;5050986;28;20048;-65
2022/05/07 16:33:39;;;;;;;5.10;3.00;;;;;;;;;;5051356;28;20037;-65
2022/05/07 16:36:44;;;;;;;5.88;2.83;;;;;;;;;;5051296;28;20037;-64
2022/05/07 16:39:48;;;;;;;6.55;2.90;;;;;;;;;;5051524;28;20041;-66
2022/05/07 16:42:54;;;;;;;7.35;2.90;;;;;;;;;;5051586;28;20362;-64
2022/05/07 16:45:58;;;;;;;6.00;3.15;;;;;;;;;;5050692;28;20044;-65
2022/05/07 16:49:02;;;;;;;9.40;4.03;;;;;;;;;;5051130;28;20045;-65
2022/05/07 16:52:10;;;;;;;4.90;2.90;;;;;;;;;;5051276;28;20033;-65
2022/05/07 16:55:14;;;;;;;8.45;3.08;;;;;;;;;;5050885;28;20033;-64
2022/05/07 16:58:18;;;;;;;7.97;3.25;;;;;;;;;;5051239;28;20028;-64
2022/05/07 17:01:23;;;;;;;4.65;2.85;;;;;;;;;;5050275;28;20045;-64
2022/05/07 17:04:27;;;;;;;5.85;3.28;;;;;;;;;;5051028;28;20477;-65
2022/05/07 17:07:31;;;;;;;4.10;2.72;;;;;;;;;;5050916;28;20037;-65
2022/05/07 17:10:38;;;;;;;5.15;2.90;;;;;;;;;;5050811;28;20350;-65
2022/05/07 17:13:42;;;;;;;8.60;3.38;;;;;;;;;;5049781;28;20033;-64
2022/05/07 17:16:46;;;;;;;8.10;2.60;;;;;;;;;;5055253;28;20041;-64
2022/05/07 17:19:52;;;;;;;6.10;3.20;;;;;;;;;;5057395;28;20033;-64
2022/05/07 17:22:56;;;;;;;6.38;3.75;;;;;;;;;;5045206;28;20045;-64
2022/05/07 17:26:00;;;;;;;7.28;3.50;;;;;;;;;;5056847;28;20032;-63
2022/05/07 17:29:05;;;;;;;6.32;3.17;;;;;;;;;;5056066;28;20049;-64
2022/05/07 17:32:09;;;;;;;9.48;2.78;;;;;;;;;;5057198;28;20430;-65
2022/05/07 17:35:14;;;;;;;6.32;3.10;;;;;;;;;;5057209;28;20045;-65
2022/05/07 17:38:18;;;;;;;5.60;2.60;;;;;;;;;;5057001;28;20040;-64
2022/05/07 17:41:23;;;;;;;2.50;2.28;;;;;;;;;;5056913;28;20037;-65
2022/05/07 17:44:28;;;;;;;4.07;2.13;;;;;;;;;;5056975;28;20495;-64
2022/05/07 17:47:33;;;;;;;3.83;2.80;;;;;;;;;;5056886;28;20032;-64
2022/05/07 17:50:38;;;;;;;4.47;2.85;;;;;;;;;;5056782;28;20478;-64
2022/05/07 17:53:44;;;;;;;4.45;2.80;;;;;;;;;;5056298;28;20041;-64
2022/05/07 17:56:48;;;;;;;4.30;2.60;;;;;;;;;;5057099;28;20037;-65
2022/05/07 17:59:52;;;;;;;5.53;2.83;;;;;;;;;;5055879;28;20036;-65
2022/05/07 18:02:58;;;;;;;5.15;2.92;;;;;;;;;;5057216;28;20033;-74
2022/05/07 18:06:02;;;;;;;5.88;3.13;;;;;;;;;;5057198;28;20172;-73
2022/05/07 18:09:09;;;;;;;12.40;4.60;;;;;;;;;;5056706;28;20045;-72
2022/05/07 18:12:14;;;;;;;4.60;3.28;;;;;;;;;;5056989;28;20484;-72
2022/05/07 18:15:18;;;;;;;6.20;3.78;;;;;;;;;;5060058;28;20442;-72
2022/05/07 18:18:22;;;;;;;7.88;3.78;;;;;;;;;;5061132;28;20037;-70
2022/05/07 18:21:28;;;;;;;8.00;4.15;;;;;;;;;;5060792;28;20041;-71
2022/05/07 18:24:34;;;;;;;9.25;4.00;;;;;;;;;;5061395;28;20037;-71
2022/05/07 18:27:42;;;;;;;8.85;4.80;;;;;;;;;;5058106;28;20037;-72
2022/05/07 18:30:48;;;;;;;10.80;4.78;;;;;;;;;;5055791;28;20045;-74
2022/05/07 18:33:54;;;;;;;14.40;5.63;;;;;;;;;;5056393;28;20140;-73
2022/05/07 18:43:46;;;;;;;14.52;5.60;;;;;;;;;;5056717;28;20438;-73
2022/05/07 18:46:51;;;;;;;13.07;5.68;;;;;;;;;;5057094;28;20378;-73
2022/05/07 18:49:56;;;;;;;18.25;6.35;;;;;;;;;;5055858;28;20052;-73
2022/05/07 18:53:02;;;;;;;15.52;6.38;;;;;;;;;;5056363;28;20396;-72
2022/05/07 18:59:29;;;;;;;11.63;6.63;;;;;;;;;;5053789;28;20045;-71
2022/05/07 19:02:36;;;;;;;16.45;7.80;;;;;;;;;;5053589;28;20055;-72
2022/05/07 19:05:41;;;;;;;11.57;5.00;;;;;;;;;;5053864;28;20041;-72
2022/05/07 19:08:45;;;;;;;12.88;4.68;;;;;;;;;;5052727;28;20040;-72
2022/05/07 19:11:51;;;;;;;11.63;5.00;;;;;;;;;;5051945;28;20049;-71
2022/05/07 19:14:57;;;;;;;9.98;4.93;;;;;;;;;;5052620;28;20048;-72
2022/05/07 19:18:01;;;;;;;12.23;5.10;;;;;;;;;;5052073;28;20036;-72
2022/05/07 19:21:06;;;;;;;12.15;4.90;;;;;;;;;;5051634;28;20037;-72
2022/05/07 19:24:11;;;;;;;14.00;6.63;;;;;;;;;;5052470;28;20037;-72
2022/05/07 19:27:16;;;;;;;13.77;6.30;;;;;;;;;;5040589;28;20045;-72
2022/05/07 19:30:21;;;;;;;13.07;5.90;;;;;;;;;;5051680;28;20049;-72
2022/05/07 19:33:25;;;;;;;13.18;6.00;;;;;;;;;;5052893;28;20492;-73
2022/05/07 19:36:31;;;;;;;12.05;6.53;;;;;;;;;;5052204;28;20053;-73
2022/05/07 19:39:35;;;;;;;13.32;6.28;;;;;;;;;;5051419;28;20141;-74